createdAt,value
2022-11-23T00:00:46.871Z,87.60
2022-11-23T00:03:16.715Z,87.48
2022-11-23T00:05:44.463Z,87.04
2022-11-23T00:08:12.316Z,86.64
2022-11-23T00:10:40.138Z,86.67
2022-11-23T00:13:07.940Z,86.45
2022-11-23T00:15:37.159Z,86.69
2022-11-23T00:18:05.033Z,86.78
2022-11-23T00:20:32.841Z,86.83
2022-11-23T00:23:00.768Z,86.90
2022-11-23T00:25:29.457Z,86.62
2022-11-23T00:27:57.236Z,86.67
2022-11-23T00:30:25.026Z,86.01
2022-11-23T00:32:55.769Z,86.39
2022-11-23T00:35:24.473Z,86.61
2022-11-23T00:37:52.367Z,86.62
2022-11-23T00:40:20.249Z,86.93
2022-11-23T00:42:48.220Z,86.33
2022-11-23T00:45:16.173Z,86.81
2022-11-23T00:47:43.892Z,86.54
2022-11-23T00:50:13.094Z,85.94
2022-11-23T00:52:40.869Z,86.12
2022-11-23T00:55:09.647Z,86.33
2022-11-23T00:57:37.555Z,86.14
2022-11-23T01:00:07.058Z,86.38
2022-11-23T01:02:36.753Z,86.45
2022-11-23T01:05:05.788Z,86.71
2022-11-23T01:07:35.123Z,85.76
2022-11-23T01:10:05.058Z,86.09
2022-11-23T01:12:34.293Z,85.83
2022-11-23T01:15:02.247Z,86.07
2022-11-23T01:17:29.996Z,85.56
2022-11-23T01:19:58.041Z,85.87
2022-11-23T01:22:25.743Z,85.77
2022-11-23T01:24:54.893Z,85.73
2022-11-23T01:27:22.674Z,86.13
2022-11-23T01:29:51.741Z,85.78
2022-11-23T01:32:20.450Z,85.60
2022-11-23T01:34:48.410Z,85.92
2022-11-23T01:37:16.197Z,86.00
2022-11-23T01:39:45.697Z,86.25
2022-11-23T01:42:17.915Z,86.58
2022-11-23T01:44:46.072Z,86.22
2022-11-23T01:47:13.978Z,86.48
2022-11-23T01:49:44.837Z,87.17
2022-11-23T01:52:17.008Z,87.52
2022-11-23T01:54:47.753Z,87.79
2022-11-23T01:57:20.334Z,88.37
2022-11-23T01:59:49.582Z,88.36
2022-11-23T02:02:18.421Z,88.77
2022-11-23T02:04:48.859Z,89.33
2022-11-23T02:07:18.698Z,89.30
2022-11-23T02:09:48.261Z,89.08
2022-11-23T02:12:17.809Z,89.33
2022-11-23T02:14:46.736Z,89.33
2022-11-23T02:17:14.979Z,89.65
2022-11-23T02:19:55.025Z,89.41
2022-11-23T02:22:29.264Z,89.51
2022-11-23T02:24:57.470Z,89.27
2022-11-23T02:27:28.479Z,89.29
2022-11-23T02:30:01.279Z,89.47
2022-11-23T02:32:30.047Z,89.63
2022-11-23T02:34:57.891Z,89.22
2022-11-23T02:37:26.337Z,89.63
2022-11-23T02:39:55.417Z,89.34
2022-11-23T02:42:24.776Z,89.60
2022-11-23T02:45:00.728Z,89.83
2022-11-23T02:47:28.608Z,90.15
2022-11-23T02:49:56.692Z,90.26
2022-11-23T02:52:24.614Z,90.26
2022-11-23T02:54:52.471Z,90.48
2022-11-23T02:57:20.289Z,90.55
2022-11-23T02:59:48.140Z,90.73
2022-11-23T03:02:17.284Z,90.64
2022-11-23T03:04:45.065Z,91.00
2022-11-23T03:07:13.160Z,91.14
2022-11-23T03:09:41.176Z,91.40
2022-11-23T03:12:10.243Z,91.52
2022-11-23T03:14:38.695Z,91.58
2022-11-23T03:17:06.984Z,91.65
2022-11-23T03:19:43.347Z,91.72
2022-11-23T03:22:12.564Z,91.23
2022-11-23T03:24:40.485Z,91.45
2022-11-23T03:27:11.296Z,91.43
2022-11-23T03:29:41.647Z,91.36
2022-11-23T03:32:15.436Z,91.48
2022-11-23T03:34:48.348Z,91.64
2022-11-23T03:37:18.548Z,91.24
2022-11-23T03:39:47.689Z,90.87
2022-11-23T03:42:24.585Z,91.33
2022-11-23T03:44:52.465Z,91.16
2022-11-23T03:47:20.432Z,91.17
2022-11-23T03:49:49.748Z,91.05
2022-11-23T03:52:17.819Z,91.42
2022-11-23T03:54:47.011Z,91.49
2022-11-23T03:57:15.405Z,91.15
2022-11-23T03:59:43.336Z,90.91
2022-11-23T04:02:11.791Z,91.13
2022-11-23T04:04:48.828Z,90.98
2022-11-23T04:07:47.350Z,91.09
2022-11-23T04:10:15.848Z,91.30
2022-11-23T04:13:12.949Z,91.33
2022-11-23T04:15:40.823Z,91.45
2022-11-23T04:18:09.756Z,91.30
2022-11-23T04:20:41.552Z,91.48
2022-11-23T04:23:13.242Z,91.01
2022-11-23T04:25:42.111Z,91.18
2022-11-23T04:28:11.083Z,90.89
2022-11-23T04:30:39.542Z,90.72
2022-11-23T04:33:07.884Z,90.43
2022-11-23T04:35:38.010Z,90.13
2022-11-23T04:38:07.213Z,88.87
2022-11-23T04:40:35.009Z,88.81
2022-11-23T04:43:04.471Z,88.96
2022-11-23T04:45:39.499Z,88.92
2022-11-23T04:48:11.048Z,88.59
2022-11-23T04:50:40.725Z,88.40
2022-11-23T04:53:11.749Z,87.96
2022-11-23T04:55:47.520Z,87.78
2022-11-23T04:58:16.725Z,87.50
2022-11-23T05:00:44.726Z,87.57
2022-11-23T05:03:15.902Z,88.37
2022-11-23T05:05:44.616Z,88.36
2022-11-23T05:08:13.788Z,88.89
2022-11-23T05:10:56.019Z,89.00
2022-11-23T05:13:25.671Z,88.81
2022-11-23T05:15:53.538Z,88.85
2022-11-23T05:18:26.397Z,88.94
2022-11-23T05:20:54.588Z,88.79
2022-11-23T05:23:24.277Z,88.83
2022-11-23T05:25:54.429Z,89.15
2022-11-23T05:28:40.701Z,89.05
2022-11-23T05:31:12.225Z,89.05
2022-11-23T05:33:40.477Z,88.94
2022-11-23T05:36:13.645Z,88.94
2022-11-23T05:38:44.653Z,89.33
2022-11-23T05:41:22.191Z,89.50
2022-11-23T05:43:54.628Z,89.62
2022-11-23T05:46:26.936Z,89.97
2022-11-23T05:48:55.375Z,90.16
2022-11-23T05:51:24.680Z,89.88
2022-11-23T05:53:54.647Z,89.82
2022-11-23T05:56:40.573Z,89.98
2022-11-23T05:59:17.981Z,90.10
2022-11-23T06:01:51.271Z,90.00
2022-11-23T06:04:26.098Z,90.06
2022-11-23T06:06:57.423Z,89.74
2022-11-23T06:09:26.773Z,89.73
2022-11-23T06:11:58.055Z,89.82
2022-11-23T06:14:26.294Z,89.68
2022-11-23T06:16:54.771Z,89.43
2022-11-23T06:19:48.564Z,89.60
2022-11-23T06:22:16.474Z,89.60
2022-11-23T06:25:03.101Z,89.92
2022-11-23T06:27:42.243Z,90.53
2022-11-23T06:30:17.664Z,90.75
2022-11-23T06:32:46.088Z,90.37
2022-11-23T06:35:13.977Z,90.05
2022-11-23T06:37:43.473Z,90.18
2022-11-23T06:40:13.544Z,89.42
2022-11-23T06:42:42.520Z,89.39
2022-11-23T06:45:24.968Z,89.13
2022-11-23T06:47:56.097Z,89.50
2022-11-23T06:50:24.217Z,89.80
2022-11-23T06:52:56.312Z,89.58
2022-11-23T06:55:34.196Z,89.76
2022-11-23T06:58:02.438Z,90.13
2022-11-23T07:00:30.393Z,90.22
2022-11-23T07:02:58.430Z,90.46
2022-11-23T07:05:26.330Z,90.98
2022-11-23T07:07:55.166Z,91.17
2022-11-23T07:10:27.382Z,91.26
2022-11-23T07:13:06.305Z,91.32
2022-11-23T07:15:37.124Z,91.46
2022-11-23T07:18:05.875Z,91.41
2022-11-23T07:20:35.486Z,91.14
2022-11-23T07:23:08.864Z,90.85
2022-11-23T07:25:38.959Z,90.16
2022-11-23T07:28:09.281Z,89.43
2022-11-23T07:30:37.518Z,89.30
2022-11-23T07:33:08.381Z,89.09
2022-11-23T07:35:39.170Z,88.51
2022-11-23T07:38:07.928Z,88.42
2022-11-23T07:40:37.107Z,87.85
2022-11-23T07:43:06.527Z,87.69
2022-11-23T07:45:36.721Z,87.48
2022-11-23T07:48:08.536Z,87.31
2022-11-23T07:50:37.986Z,86.82
2022-11-23T07:53:07.557Z,86.47
2022-11-23T07:55:35.932Z,86.71
2022-11-23T07:58:04.826Z,86.56
2022-11-23T08:00:32.689Z,87.14
2022-11-23T08:03:26.534Z,87.52
2022-11-23T08:05:49.726Z,87.78
2022-11-23T08:08:17.546Z,88.09
2022-11-23T08:10:51.407Z,89.00
2022-11-23T08:13:20.812Z,88.98
2022-11-23T08:15:54.382Z,89.13
2022-11-23T08:18:25.168Z,88.62
2022-11-23T08:20:52.954Z,87.86
2022-11-23T08:23:21.692Z,86.78
2022-11-23T08:25:49.663Z,85.14
2022-11-23T08:28:17.884Z,84.89
2022-11-23T08:30:45.772Z,84.26
2022-11-23T08:33:14.787Z,84.21
2022-11-23T08:35:44.876Z,82.97
2022-11-23T08:38:12.870Z,81.86
2022-11-23T08:40:40.671Z,81.27
2022-11-23T08:43:08.594Z,81.04
2022-11-23T08:45:36.432Z,80.82
2022-11-23T08:48:05.298Z,80.76
2022-11-23T08:50:34.349Z,78.91
2022-11-23T08:53:03.883Z,78.94
2022-11-23T08:55:31.646Z,77.63
2022-11-23T08:57:59.944Z,76.18
2022-11-23T09:00:28.821Z,76.36
2022-11-23T09:02:58.824Z,77.06
2022-11-23T09:05:26.786Z,77.39
2022-11-23T09:07:55.239Z,77.41
2022-11-23T09:10:24.506Z,77.99
2022-11-23T09:12:52.750Z,77.80
2022-11-23T09:15:21.454Z,77.00
2022-11-23T09:17:49.228Z,76.41
2022-11-23T09:20:17.406Z,77.07
2022-11-23T09:22:45.544Z,75.89
2022-11-23T09:25:13.646Z,75.59
2022-11-23T09:27:42.857Z,75.56
2022-11-23T09:30:12.139Z,76.40
2022-11-23T09:32:39.968Z,75.67
2022-11-23T09:35:08.726Z,75.43
2022-11-23T09:37:36.944Z,75.08
2022-11-23T09:40:05.348Z,75.61
2022-11-23T09:42:59.288Z,75.81
2022-11-23T09:45:35.726Z,75.77
2022-11-23T09:48:25.824Z,76.39
2022-11-23T09:51:00.608Z,76.28
2022-11-23T09:53:34.675Z,75.62
2022-11-23T09:56:02.979Z,75.21
2022-11-23T09:58:40.675Z,75.87
2022-11-23T10:01:13.046Z,74.78
2022-11-23T10:03:48.284Z,74.38
2022-11-23T10:06:20.920Z,75.16
2022-11-23T10:09:13.520Z,74.10
2022-11-23T10:12:09.667Z,74.01
2022-11-23T10:14:54.982Z,74.49
2022-11-23T10:17:30.224Z,74.20
2022-11-23T10:20:16.703Z,74.64
2022-11-23T10:22:49.280Z,74.96
2022-11-23T10:25:18.964Z,74.30
2022-11-23T10:27:49.609Z,74.22
2022-11-23T10:30:20.498Z,74.05
2022-11-23T10:32:53.355Z,73.87
2022-11-23T10:35:28.246Z,72.99
2022-11-23T10:38:03.708Z,72.33
2022-11-23T10:40:31.467Z,71.85
2022-11-23T10:43:02.802Z,70.99
2022-11-23T10:45:32.023Z,71.32
2022-11-23T10:48:01.790Z,70.78
2022-11-23T10:50:33.481Z,68.35
2022-11-23T10:53:13.716Z,67.63
2022-11-23T10:55:49.165Z,68.29
2022-11-23T10:58:27.586Z,65.15
2022-11-23T11:01:05.040Z,64.55
2022-11-23T11:03:35.577Z,64.93
2022-11-23T11:06:09.535Z,63.43
2022-11-23T11:08:49.650Z,62.02
2022-11-23T11:11:25.350Z,60.80
2022-11-23T11:14:03.827Z,62.05
2022-11-23T11:16:35.288Z,63.19
2022-11-23T11:19:23.925Z,63.14
2022-11-23T11:21:51.734Z,64.42
2022-11-23T11:24:22.780Z,66.27
2022-11-23T11:26:53.177Z,65.36
2022-11-23T11:29:38.369Z,66.23
2022-11-23T11:32:14.840Z,65.32
2022-11-23T11:34:46.027Z,66.40
2022-11-23T11:37:21.612Z,65.69
2022-11-23T11:39:51.950Z,66.16
2022-11-23T11:42:22.237Z,66.35
2022-11-23T11:44:56.219Z,66.90
2022-11-23T11:47:31.119Z,66.90
2022-11-23T11:50:02.531Z,66.74
2022-11-23T11:52:37.211Z,67.06
2022-11-23T11:55:12.850Z,66.17
2022-11-23T11:57:43.455Z,66.63
2022-11-23T12:00:16.457Z,67.08
2022-11-23T12:02:59.431Z,66.61
2022-11-23T12:05:35.092Z,66.59
2022-11-23T12:08:07.681Z,66.67
2022-11-23T12:10:41.732Z,66.43
2022-11-23T12:13:14.232Z,66.62
2022-11-23T12:15:49.891Z,66.29
2022-11-23T12:18:49.907Z,65.84
2022-11-23T12:21:29.812Z,66.49
2022-11-23T12:24:07.997Z,65.98
2022-11-23T12:26:46.203Z,65.59
2022-11-23T12:29:42.848Z,66.04
2022-11-23T12:32:22.351Z,65.59
2022-11-23T12:35:20.972Z,64.67
2022-11-23T12:38:03.942Z,64.82
2022-11-23T12:40:52.395Z,63.34
2022-11-23T12:43:24.972Z,63.12
2022-11-23T12:46:14.491Z,65.28
2022-11-23T12:49:05.302Z,67.58
2022-11-23T12:51:41.225Z,67.29
2022-11-23T12:54:26.475Z,67.05
2022-11-23T12:57:02.293Z,67.39
2022-11-23T12:59:41.023Z,66.73
2022-11-23T13:02:25.130Z,66.53
2022-11-23T13:05:20.289Z,66.78
2022-11-23T13:08:22.393Z,65.96
2022-11-23T13:11:00.449Z,66.43
2022-11-23T13:13:42.581Z,65.68
2022-11-23T13:16:41.422Z,65.21
2022-11-23T13:19:41.407Z,63.44
2022-11-23T13:22:12.583Z,62.34
2022-11-23T13:25:02.163Z,63.26
2022-11-23T13:27:43.907Z,63.85
2022-11-23T13:30:45.600Z,64.64
2022-11-23T13:33:34.255Z,65.71
2022-11-23T13:36:10.403Z,65.47
2022-11-23T13:38:45.721Z,65.51
2022-11-23T13:41:55.039Z,65.48
2022-11-23T13:44:27.515Z,65.02
2022-11-23T13:47:06.625Z,64.55
2022-11-23T13:49:40.833Z,64.30
2022-11-23T13:52:28.171Z,64.46
2022-11-23T13:54:59.778Z,64.83
2022-11-23T13:57:30.597Z,65.02
2022-11-23T14:00:30.956Z,66.19
2022-11-23T14:03:32.387Z,66.19
2022-11-23T14:06:04.222Z,66.23
2022-11-23T14:08:35.088Z,66.91
2022-11-23T14:11:12.901Z,67.32
2022-11-23T14:13:46.514Z,68.27
2022-11-23T14:16:24.380Z,68.24
2022-11-23T14:19:02.654Z,67.86
2022-11-23T14:21:41.224Z,68.44
2022-11-23T14:24:45.779Z,68.52
2022-11-23T14:30:37.244Z,69.08
2022-11-23T14:33:17.805Z,69.30
2022-11-23T14:35:53.363Z,69.67
2022-11-23T14:38:55.078Z,69.18
2022-11-23T14:41:25.681Z,68.96
2022-11-23T14:43:55.216Z,69.35
2022-11-23T14:46:25.474Z,70.07
2022-11-23T14:49:03.580Z,69.76
2022-11-23T14:51:32.311Z,69.04
2022-11-23T14:54:03.667Z,69.10
2022-11-23T14:56:35.047Z,69.16
2022-11-23T14:59:05.667Z,68.23
2022-11-23T15:01:34.750Z,68.72
2022-11-23T15:04:09.638Z,69.03
2022-11-23T15:06:45.904Z,68.48
2022-11-23T15:09:22.412Z,69.06
2022-11-23T15:11:50.279Z,69.95
2022-11-23T15:14:20.834Z,71.30
2022-11-23T15:16:49.329Z,71.96
2022-11-23T15:19:27.325Z,71.86
2022-11-23T15:21:55.417Z,72.87
2022-11-23T15:24:26.792Z,73.20
2022-11-23T15:26:58.309Z,73.55
2022-11-23T15:29:31.651Z,74.85
2022-11-23T15:32:28.638Z,74.56
2022-11-23T15:34:49.365Z,75.10
2022-11-23T15:37:18.690Z,76.13
2022-11-23T15:39:48.704Z,76.56
2022-11-23T15:42:19.250Z,76.79
2022-11-23T15:44:51.552Z,77.56
2022-11-23T15:47:27.277Z,77.98
2022-11-23T15:50:01.620Z,78.38
2022-11-23T15:52:32.252Z,79.54
2022-11-23T15:55:09.266Z,80.88
2022-11-23T15:57:39.818Z,81.96
2022-11-23T16:00:09.380Z,83.67
2022-11-23T16:02:40.193Z,85.17
2022-11-23T16:05:14.770Z,86.41
2022-11-23T16:07:54.039Z,88.50
2022-11-23T16:10:25.913Z,89.71
2022-11-23T16:12:55.639Z,90.58
2022-11-23T16:15:42.009Z,91.59
2022-11-23T16:18:22.864Z,93.68
2022-11-23T16:20:53.210Z,93.72
2022-11-23T16:23:23.345Z,94.60
2022-11-23T16:25:59.361Z,93.22
2022-11-23T16:28:30.926Z,93.30
2022-11-23T16:30:59.461Z,93.87
2022-11-23T16:33:27.400Z,93.76
2022-11-23T16:35:55.515Z,94.59
2022-11-23T16:38:23.686Z,95.41
2022-11-23T16:40:51.740Z,95.68
2022-11-23T16:43:20.829Z,97.45
2022-11-23T16:45:51.674Z,97.53
2022-11-23T16:48:39.973Z,99.02
2022-11-23T16:51:10.723Z,99.97
2022-11-23T16:54:11.330Z,100.00
2022-11-23T16:56:28.226Z,100.00
2022-11-23T16:58:57.720Z,100.00
2022-11-23T17:01:27.542Z,100.00
2022-11-23T17:03:55.419Z,100.00
2022-11-23T17:06:23.895Z,100.00
2022-11-23T17:09:00.463Z,100.00
2022-11-23T17:11:36.126Z,100.00
2022-11-23T17:14:05.832Z,100.00
2022-11-23T17:16:34.326Z,100.00
2022-11-23T17:19:02.357Z,100.00
2022-11-23T17:21:30.251Z,100.00
2022-11-23T17:23:58.059Z,100.00
2022-11-23T17:26:35.442Z,100.00
2022-11-23T17:29:06.630Z,100.00
2022-11-23T17:31:34.888Z,100.00
2022-11-23T17:34:02.772Z,100.00
2022-11-23T17:36:31.821Z,100.00
2022-11-23T17:38:59.716Z,100.00
2022-11-23T17:41:27.552Z,100.00
2022-11-23T17:43:55.795Z,100.00
2022-11-23T17:46:25.487Z,100.00
2022-11-23T17:48:57.236Z,100.00
2022-11-23T17:51:25.209Z,100.00
2022-11-23T17:53:53.022Z,100.00
2022-11-23T17:56:23.157Z,100.00
2022-11-23T17:58:52.384Z,100.00
2022-11-23T18:01:22.499Z,100.00
2022-11-23T18:03:51.918Z,100.00
2022-11-23T18:06:23.029Z,100.00
2022-11-23T18:08:52.423Z,100.00
2022-11-23T18:11:21.307Z,100.00
2022-11-23T18:13:50.469Z,100.00
2022-11-23T18:16:19.655Z,100.00
2022-11-23T18:18:47.742Z,100.00
2022-11-23T18:21:17.061Z,100.00
2022-11-23T18:23:45.494Z,100.00
2022-11-23T18:26:17.583Z,100.00
2022-11-23T18:28:45.775Z,100.00
2022-11-23T18:31:13.781Z,100.00
2022-11-23T18:33:41.791Z,100.00
2022-11-23T18:36:10.581Z,100.00
2022-11-23T18:38:40.562Z,100.00
2022-11-23T18:41:09.236Z,100.00
2022-11-23T18:43:37.333Z,100.00
2022-11-23T18:46:07.204Z,100.00
2022-11-23T18:48:35.344Z,100.00
2022-11-23T18:51:03.449Z,100.00
2022-11-23T18:53:31.661Z,100.00
2022-11-23T18:56:04.939Z,100.00
2022-11-23T18:58:33.796Z,100.00
2022-11-23T19:01:12.309Z,100.00
2022-11-23T19:03:41.849Z,100.00
2022-11-23T19:06:13.496Z,100.00
2022-11-23T19:08:41.954Z,100.00
2022-11-23T19:11:16.206Z,100.00
2022-11-23T19:13:44.792Z,100.00
2022-11-23T19:16:15.057Z,100.00
2022-11-23T19:18:43.435Z,100.00
2022-11-23T19:21:15.865Z,100.00
2022-11-23T19:23:43.951Z,100.00
2022-11-23T19:26:13.100Z,100.00
2022-11-23T19:28:44.582Z,100.00
2022-11-23T19:31:13.725Z,100.00
2022-11-23T19:33:41.748Z,100.00
2022-11-23T19:36:11.292Z,100.00
2022-11-23T19:38:39.192Z,100.00
2022-11-23T19:41:07.576Z,100.00
2022-11-23T19:43:36.948Z,100.00
2022-11-23T19:46:07.137Z,100.00
2022-11-23T19:48:35.895Z,100.00
2022-11-23T19:51:05.826Z,100.00
2022-11-23T19:53:35.735Z,100.00
2022-11-23T19:56:05.206Z,100.00
2022-11-23T19:58:34.767Z,100.00
2022-11-23T20:01:05.490Z,100.00
2022-11-23T20:03:35.825Z,100.00
2022-11-23T20:06:06.819Z,100.00
2022-11-23T20:08:34.945Z,100.00
2022-11-23T20:11:08.345Z,100.00
2022-11-23T20:13:36.668Z,100.00
2022-11-23T20:16:08.716Z,100.00
2022-11-23T20:18:36.600Z,100.00
2022-11-23T20:21:04.569Z,100.00
2022-11-23T20:23:32.765Z,100.00
2022-11-23T20:26:00.620Z,100.00
2022-11-23T20:28:28.597Z,100.00
2022-11-23T20:30:56.547Z,100.00
2022-11-23T20:33:25.695Z,100.00
2022-11-23T20:35:53.476Z,100.00
2022-11-23T20:38:21.537Z,100.00
2022-11-23T20:40:50.458Z,100.00
2022-11-23T20:43:18.199Z,100.00
2022-11-23T20:45:46.140Z,100.00
2022-11-23T20:48:13.927Z,100.00
2022-11-23T20:50:43.997Z,100.00
2022-11-23T20:53:11.806Z,100.00
2022-11-23T20:55:39.573Z,100.00
2022-11-23T20:58:08.131Z,100.00
2022-11-23T21:00:35.914Z,100.00
2022-11-23T21:03:03.694Z,100.00
2022-11-23T21:05:31.787Z,100.00
2022-11-23T21:08:01.721Z,100.00
2022-11-23T21:10:46.898Z,100.00
2022-11-23T21:13:48.511Z,100.00
2022-11-23T21:16:17.053Z,100.00
2022-11-23T21:18:44.801Z,100.00
2022-11-23T21:21:12.888Z,100.00
2022-11-23T21:23:42.137Z,100.00
2022-11-23T21:26:09.823Z,100.00
2022-11-23T21:28:37.807Z,100.00
2022-11-23T21:31:08.812Z,100.00
2022-11-23T21:33:37.556Z,100.00
2022-11-23T21:36:06.333Z,100.00
2022-11-23T21:38:36.137Z,100.00
2022-11-23T21:41:10.755Z,100.00
2022-11-23T21:43:38.994Z,100.00
2022-11-23T21:46:09.008Z,100.00
2022-11-23T21:48:37.680Z,100.00
2022-11-23T21:51:07.477Z,100.00
2022-11-23T21:53:35.869Z,100.00
2022-11-23T21:56:08.066Z,100.00
2022-11-23T21:58:36.622Z,100.00
2022-11-23T22:01:05.901Z,100.00
2022-11-23T22:03:37.764Z,100.00
2022-11-23T22:06:06.552Z,100.00
2022-11-23T22:08:34.953Z,100.00
2022-11-23T22:11:13.417Z,100.00
2022-11-23T22:13:43.544Z,100.00
2022-11-23T22:16:17.458Z,100.00
2022-11-23T22:18:46.166Z,100.00
2022-11-23T22:21:14.171Z,100.00
2022-11-23T22:23:42.603Z,100.00
2022-11-23T22:26:13.940Z,100.00
2022-11-23T22:28:43.781Z,100.00
2022-11-23T22:31:13.921Z,100.00
2022-11-23T22:33:42.921Z,100.00
2022-11-23T22:36:14.596Z,100.00
2022-11-23T22:38:43.075Z,100.00
2022-11-23T22:41:14.775Z,100.00
2022-11-23T22:43:43.194Z,100.00
2022-11-23T22:46:12.945Z,100.00
2022-11-23T22:48:42.620Z,100.00
2022-11-23T22:51:12.381Z,100.00
2022-11-23T22:53:44.586Z,100.00
2022-11-23T22:56:15.819Z,100.00
2022-11-23T22:58:44.570Z,100.00
2022-11-23T23:01:14.880Z,100.00
2022-11-23T23:03:43.531Z,100.00
2022-11-23T23:06:16.452Z,100.00
2022-11-23T23:08:45.536Z,100.00
2022-11-23T23:11:16.267Z,100.00
2022-11-23T23:13:44.155Z,100.00
2022-11-23T23:16:14.039Z,100.00
2022-11-23T23:18:42.788Z,100.00
2022-11-23T23:21:12.209Z,100.00
2022-11-23T23:23:41.307Z,100.00
2022-11-23T23:26:09.815Z,100.00
2022-11-23T23:28:40.063Z,100.00
2022-11-23T23:31:10.128Z,100.00
2022-11-23T23:33:38.265Z,100.00
2022-11-23T23:36:07.699Z,100.00
2022-11-23T23:38:36.660Z,100.00
2022-11-23T23:41:05.520Z,100.00
2022-11-23T23:43:34.029Z,100.00
2022-11-23T23:46:05.377Z,100.00
2022-11-23T23:48:34.950Z,100.00
2022-11-23T23:51:06.923Z,100.00
2022-11-23T23:53:34.912Z,100.00
2022-11-23T23:56:06.008Z,100.00
2022-11-23T23:58:34.103Z,100.00
